Aérodrome :
LOGIN :

S'inscrire | Disclaimer

   EN    FR    IT 

 










Légende :    VFR   VFR Marginal   IFR   IFR Intensif   IFR Très Intensif
Visi : 
Plafond : 
>= 8 km
>= 3000ft
5 à 8 km
1000 à 3000 ft
1500m à 5 km
500 à 1000 ft
800 à 1500m
200 à 500 ft
< 800m
< 200 ft
Symboles :   Orages  Brouillard  Fortes neiges  Fortes précipitations  Vent > 20 kt
SIGMETs :   Divers  Orages  Givrage  Turbulence  Onde Orograph.  Cendres Volcan.






- Altitude de l'aérodrome : 485 ft
- Code IATA : QSA


LELL - Sabadell

DERNIER METAR :
  • 240130Z AUTO 28004KT 250V310 CAVOK 19/16 Q1012

METARs EXPIRÉS :
  • 240100Z AUTO VRB01KT CAVOK 19/17 Q1012
  • 240030Z AUTO VRB02KT CAVOK 20/17 Q1011
  • 240000Z AUTO 22004KT 190V250 CAVOK 19/17 Q1012
  • 232330Z AUTO 27004KT CAVOK 20/17 Q1012
  • 232300Z AUTO 30004KT 270V330 CAVOK 21/18 Q1012

TAF TAF LELL
Valide du 23 à 15h jusqu'au 24 à 15h UTC


231400Z 2315/2415 20010KT 9999 FEW020 TX27/2413Z TN16/2406Z
BECMG 2322/2324 VRB03KT
BECMG 2412/2414 27010KT



MET'MAP, la Météo Aéronautique d'un coup d'oeil ! - Copyright ORBIFLY Décembre 2007 - Disclaimer

ORBIFLY MET'MAP TEAM :

Programmation & Développement : Alexandra Zaïnal
Sur une idée originale de : Baudouin d'Aumeries
Assistance à la programmation : Marc-Olivier Méhu
Soutien technique & logistique : Manuel Goepfert

Contact : metmap@orbifly.com




SOURCES & CREDITS :

   NOAA